Current Conditions
Voornamelijk Helder




Pressure
1023.92 (mb) - 30.24 (inHG)
Visibility

10.0 (km) - 6.2 (miles)
   Temperature
19  °C
66°F
5  °C
Dewpoint
40  %
 Humidity
   Wind Speed
32  km/h
17  kts
20  mph
8.9  m/s
   Wind Direction
 70°
East North
East
   Airport Data
EHAM
Location Amsterdam Schiphol 80 km (49.72 mi)
Metar :EHAM 311025Z 07017KT 030V110 CAVOK 19/05 Q1024 NOSIG
Sun 31st May 11:25 am
   Raw Metar Info
Raw METAR is the most common format in the world for the transmission of observational weather data. It is highly standardized through the International Civil Aviation Organization (ICAO), which allows it to be understood throughout most of the world.
   API Info
Data Provided by
https://www.checkwx.com/weather/EHAM
   © Info
CSS/SVG/PHP scripts were developed by weather34.com for use in the weather34 template © 2015-2020

Guide Info provided by Metar-Wikipedia